< < Back
Terminal Aerodrome Forecast


Current Version              Previous Versions:   1  2  3  4  5  6  7  8  9  

Terminal Aerodrome Forecast

596
FTUS42 KTAE 031522 AAA
TAFVLD
TAF AMD
KVLD 031522Z 0315/0412 02003KT P6SM BKN020
     FM031700 01006KT P6SM SCT025 BKN040
     FM032300 VRB03KT P6SM SCT250=

Latest METAR

035
SAUS70 KWBC 040400 RRI
MTRVLD
METAR KVLD 040353Z AUTO 22003KT 10SM CLR 26/24 A2994 RMK AO2 SLP143
T02610239 TSNO


USA.gov is the U.S. government's official web portal to all federal, state and local government web resources and services.